createdAt,value
2023-04-21T00:00:15.210Z,96958.88
2023-04-21T00:02:43.320Z,96961.97
2023-04-21T00:05:12.674Z,96949.31
2023-04-21T00:07:41.535Z,96961.53
2023-04-21T00:10:09.957Z,96956.97
2023-04-21T00:12:38.337Z,96956.06
2023-04-21T00:15:06.733Z,96950.00
2023-04-21T00:17:34.447Z,96963.19
2023-04-21T00:20:02.203Z,96965.88
2023-04-21T00:22:29.856Z,96959.25
2023-04-21T00:24:58.317Z,96961.38
2023-04-21T00:27:25.989Z,96957.44
2023-04-21T00:29:53.699Z,96958.72
2023-04-21T00:32:21.383Z,96955.31
2023-04-21T00:34:49.114Z,96959.53
2023-04-21T00:37:17.039Z,96959.91
2023-04-21T00:39:44.848Z,96962.19
2023-04-21T00:42:17.646Z,96967.03
2023-04-21T00:44:45.714Z,96952.88
2023-04-21T00:47:13.540Z,96955.53
2023-04-21T00:49:41.693Z,96957.44
2023-04-21T00:52:09.424Z,96952.53
2023-04-21T00:54:37.302Z,96941.63
2023-04-21T00:57:05.075Z,96946.91
2023-04-21T00:59:32.800Z,96947.75
2023-04-21T01:02:00.982Z,96938.97
2023-04-21T01:04:29.269Z,96942.63
2023-04-21T01:06:57.504Z,96938.09
2023-04-21T01:09:25.270Z,96938.56
2023-04-21T01:12:06.980Z,96939.91
2023-04-21T01:14:36.070Z,96944.66
2023-04-21T01:17:08.095Z,96942.91
2023-04-21T01:19:41.653Z,96949.91
2023-04-21T01:22:12.612Z,96946.91
2023-04-21T01:24:41.893Z,96946.41
2023-04-21T01:27:16.571Z,96954.00
2023-04-21T01:29:44.580Z,96938.06
2023-04-21T01:32:15.038Z,96953.72
2023-04-21T01:34:42.921Z,96942.91
2023-04-21T01:37:13.012Z,96940.84
2023-04-21T01:39:41.707Z,96946.00
2023-04-21T01:42:09.580Z,96943.19
2023-04-21T01:44:37.503Z,96933.72
2023-04-21T01:47:05.325Z,96927.44
2023-04-21T01:49:33.079Z,96922.97
2023-04-21T01:52:00.818Z,96933.22
2023-04-21T01:54:28.637Z,96921.28
2023-04-21T01:56:56.448Z,96924.78
2023-04-21T01:59:25.052Z,96917.72
2023-04-21T02:01:52.770Z,96907.19
2023-04-21T02:04:20.694Z,96914.66
2023-04-21T02:06:48.504Z,96916.06
2023-04-21T02:09:16.374Z,96907.34
2023-04-21T02:11:44.177Z,96918.47
2023-04-21T02:14:11.939Z,96918.66
2023-04-21T02:16:41.487Z,96915.75
2023-04-21T02:19:09.322Z,96909.47
2023-04-21T02:21:37.118Z,96910.47
2023-04-21T02:24:04.920Z,96910.22
2023-04-21T02:26:32.679Z,96918.03
2023-04-21T02:29:01.478Z,96917.34
2023-04-21T02:31:29.582Z,96924.22
2023-04-21T02:33:57.303Z,96919.59
2023-04-21T02:36:25.119Z,96923.19
2023-04-21T02:38:52.861Z,96920.75
2023-04-21T02:41:20.603Z,96934.59
2023-04-21T02:43:48.375Z,96935.06
2023-04-21T02:46:16.107Z,96932.22
2023-04-21T02:48:43.833Z,96937.59
2023-04-21T02:51:13.618Z,96944.56
2023-04-21T02:53:42.333Z,96937.53
2023-04-21T02:56:10.233Z,96940.88
2023-04-21T02:58:37.968Z,96939.16
2023-04-21T03:01:06.534Z,96946.25
2023-04-21T03:03:36.377Z,96949.72
2023-04-21T03:06:05.033Z,96955.69
2023-04-21T03:08:32.814Z,96951.50
2023-04-21T03:11:00.917Z,96958.81
2023-04-21T03:13:28.692Z,96955.09
2023-04-21T03:15:57.365Z,96962.66
2023-04-21T03:18:25.100Z,96966.19
2023-04-21T03:20:53.078Z,96965.78
2023-04-21T03:23:20.943Z,96964.22
2023-04-21T03:25:48.741Z,96957.03
2023-04-21T03:28:16.969Z,96963.53
2023-04-21T03:30:44.858Z,96960.06
2023-04-21T03:33:12.499Z,96963.78
2023-04-21T03:35:40.229Z,96965.88
2023-04-21T03:38:09.184Z,96959.09
2023-04-21T03:40:37.329Z,96975.56
2023-04-21T03:43:05.438Z,96975.34
2023-04-21T03:45:37.830Z,96969.50
2023-04-21T03:48:06.191Z,96978.91
2023-04-21T03:50:33.892Z,96981.16
2023-04-21T03:53:01.879Z,96991.59
2023-04-21T03:55:29.646Z,96976.38
2023-04-21T03:57:57.453Z,96978.56
2023-04-21T04:00:25.276Z,96989.28
2023-04-21T04:02:53.022Z,96982.06
2023-04-21T04:05:20.925Z,96985.03
2023-04-21T04:07:48.652Z,96991.84
2023-04-21T04:10:16.474Z,96990.97
2023-04-21T04:12:44.197Z,96996.63
2023-04-21T04:15:11.946Z,96991.13
2023-04-21T04:17:39.660Z,96990.38
2023-04-21T04:20:08.507Z,96994.91
2023-04-21T04:22:36.270Z,97011.00
2023-04-21T04:25:05.413Z,97005.13
2023-04-21T04:27:33.249Z,97009.47
2023-04-21T04:30:01.063Z,97017.16
2023-04-21T04:32:29.080Z,97012.44
2023-04-21T04:34:56.973Z,97010.78
2023-04-21T04:37:25.420Z,97019.31
2023-04-21T04:39:53.945Z,97018.63
2023-04-21T04:42:21.602Z,97020.84
2023-04-21T04:44:49.305Z,97023.03
2023-04-21T04:47:17.132Z,97033.56
2023-04-21T04:49:44.918Z,97031.28
2023-04-21T04:52:12.654Z,97038.59
2023-04-21T04:54:40.391Z,97036.00
2023-04-21T04:57:08.112Z,97034.41
2023-04-21T04:59:36.765Z,97044.53
2023-04-21T05:02:04.673Z,97045.31
2023-04-21T05:04:34.298Z,97044.75
2023-04-21T05:07:02.140Z,97044.53
2023-04-21T05:09:29.868Z,97046.00
2023-04-21T05:11:57.593Z,97051.22
2023-04-21T05:14:25.278Z,97054.72
2023-04-21T05:16:53.059Z,97049.81
2023-04-21T05:19:20.727Z,97048.56
2023-04-21T05:21:48.462Z,97041.78
2023-04-21T05:24:16.197Z,97038.94
2023-04-21T05:26:43.962Z,97040.41
2023-04-21T05:29:11.666Z,97044.50
2023-04-21T05:31:39.414Z,97038.13
2023-04-21T05:34:07.425Z,97043.44
2023-04-21T05:36:35.180Z,97033.09
2023-04-21T05:39:02.854Z,97031.44
2023-04-21T05:41:30.701Z,97033.28
2023-04-21T05:43:58.427Z,97036.56
2023-04-21T05:46:26.308Z,97023.13
2023-04-21T05:48:54.029Z,97022.56
2023-04-21T05:51:21.733Z,97027.53
2023-04-21T05:53:49.439Z,97015.66
2023-04-21T05:56:17.182Z,97027.44
2023-04-21T05:58:44.882Z,97028.53
2023-04-21T06:01:13.110Z,97026.38
2023-04-21T06:03:40.960Z,97026.97
2023-04-21T06:06:09.239Z,97029.31
2023-04-21T06:08:37.039Z,97028.72
2023-04-21T06:11:04.801Z,97030.31
2023-04-21T06:13:32.550Z,97033.09
2023-04-21T06:16:00.357Z,97033.50
2023-04-21T06:18:28.161Z,97036.59
2023-04-21T06:20:55.991Z,97036.06
2023-04-21T06:23:23.726Z,97031.41
2023-04-21T06:26:05.411Z,97033.94
2023-04-21T06:28:33.971Z,97018.78
2023-04-21T06:31:01.914Z,97024.53
2023-04-21T06:33:29.962Z,97030.28
2023-04-21T06:35:57.701Z,97030.59
2023-04-21T06:38:25.415Z,97022.56
2023-04-21T06:40:53.229Z,97018.22
2023-04-21T06:43:21.186Z,97023.16
2023-04-21T06:45:48.898Z,97023.13
2023-04-21T06:48:16.806Z,97012.72
2023-04-21T06:50:46.419Z,97016.69
2023-04-21T06:53:14.159Z,97016.00
2023-04-21T06:55:42.203Z,97018.78
2023-04-21T06:58:09.973Z,97009.22
2023-04-21T07:00:37.813Z,97007.75
2023-04-21T07:03:05.627Z,97016.38
2023-04-21T07:05:33.464Z,97009.81
2023-04-21T07:08:01.183Z,97002.16
2023-04-21T07:10:29.138Z,97004.06
2023-04-21T07:12:56.877Z,97001.38
2023-04-21T07:15:24.658Z,97009.19
2023-04-21T07:17:52.388Z,97000.09
2023-04-21T07:20:20.157Z,97006.84
2023-04-21T07:22:47.796Z,97000.44
2023-04-21T07:25:15.918Z,97004.75
2023-04-21T07:27:43.677Z,96998.41
2023-04-21T07:30:11.833Z,97003.09
2023-04-21T07:32:39.896Z,96992.78
2023-04-21T07:35:08.000Z,96983.94
2023-04-21T07:37:35.766Z,96991.28
2023-04-21T07:40:04.057Z,96990.66
2023-04-21T07:42:31.846Z,96979.53
2023-04-21T07:45:01.175Z,96988.25
2023-04-21T07:47:29.284Z,96991.66
2023-04-21T07:49:58.191Z,96996.44
2023-04-21T07:52:25.986Z,96996.44
2023-04-21T07:54:53.700Z,96992.09
2023-04-21T07:57:21.410Z,96992.19
2023-04-21T07:59:49.188Z,96985.94
2023-04-21T08:02:17.118Z,96987.06
2023-04-21T08:04:45.066Z,96992.34
2023-04-21T08:07:14.883Z,96984.56
2023-04-21T08:09:42.639Z,96988.06
2023-04-21T08:12:10.445Z,96983.16
2023-04-21T08:14:38.094Z,96980.88
2023-04-21T08:17:06.004Z,96980.47
2023-04-21T08:19:33.677Z,96984.50
2023-04-21T08:22:01.498Z,96984.44
2023-04-21T08:24:29.249Z,96990.06
2023-04-21T08:26:57.709Z,96985.47
2023-04-21T08:29:25.417Z,96987.47
2023-04-21T08:31:53.202Z,96990.63
2023-04-21T08:34:23.041Z,96985.97
2023-04-21T08:36:52.132Z,96985.41
2023-04-21T08:39:20.054Z,96977.84
2023-04-21T08:41:48.133Z,96986.44
2023-04-21T08:44:15.854Z,96988.97
2023-04-21T08:46:44.937Z,96979.69
2023-04-21T08:49:12.658Z,96977.38
2023-04-21T08:51:40.427Z,96980.63
2023-04-21T08:54:08.293Z,96979.84
2023-04-21T08:56:36.045Z,96968.19
2023-04-21T08:59:03.838Z,96978.53
2023-04-21T09:01:31.673Z,96976.25
2023-04-21T09:04:18.261Z,96983.19
2023-04-21T09:06:46.482Z,96973.22
2023-04-21T09:09:14.292Z,96975.66
2023-04-21T09:11:41.999Z,96976.50
2023-04-21T09:14:10.684Z,96963.63
2023-04-21T09:16:38.438Z,96975.41
2023-04-21T09:19:15.326Z,96970.84
2023-04-21T09:21:44.006Z,96962.81
2023-04-21T09:24:13.116Z,96963.25
2023-04-21T09:26:41.152Z,96963.53
2023-04-21T09:29:09.018Z,96962.53
2023-04-21T09:31:36.894Z,96948.38
2023-04-21T09:34:18.251Z,96950.53
2023-04-21T09:36:46.956Z,96950.63
2023-04-21T09:39:34.367Z,96945.28
2023-04-21T09:42:02.532Z,96944.53
2023-04-21T09:44:33.865Z,96941.41
2023-04-21T09:47:07.182Z,96941.41
2023-04-21T09:49:35.811Z,96940.69
2023-04-21T09:54:34.468Z,96937.88
2023-04-21T09:57:03.851Z,96941.34
2023-04-21T09:59:42.781Z,96942.50
2023-04-21T10:02:11.210Z,96942.88
2023-04-21T10:04:39.617Z,96930.63
2023-04-21T10:07:07.668Z,96925.25
2023-04-21T10:09:39.257Z,96929.63
2023-04-21T10:12:09.513Z,96921.41
2023-04-21T10:14:37.610Z,96925.59
2023-04-21T10:17:05.956Z,96918.03
2023-04-21T10:19:39.409Z,96913.66
2023-04-21T10:22:10.574Z,96908.88
2023-04-21T10:24:42.373Z,96901.78
2023-04-21T10:27:13.352Z,96906.88
2023-04-21T10:29:55.739Z,96899.72
2023-04-21T10:32:41.530Z,96898.19
2023-04-21T10:35:17.356Z,96890.28
2023-04-21T10:37:45.318Z,96892.06
2023-04-21T10:40:43.071Z,96883.88
2023-04-21T10:43:49.224Z,96882.88
2023-04-21T10:46:37.032Z,96877.00
2023-04-21T10:49:29.000Z,96877.28
2023-04-21T10:51:59.698Z,96872.66
2023-04-21T10:54:37.915Z,96880.34
2023-04-21T10:57:06.623Z,96885.34
2023-04-21T10:59:34.787Z,96874.72
2023-04-21T11:02:03.687Z,96871.88
2023-04-21T11:04:32.110Z,96897.44
2023-04-21T11:07:11.171Z,96895.19
2023-04-21T11:09:40.490Z,96892.84
2023-04-21T11:12:12.670Z,96887.88
2023-04-21T11:14:41.825Z,96886.81
2023-04-21T11:17:13.814Z,96896.41
2023-04-21T11:19:41.973Z,96894.28
2023-04-21T11:22:09.637Z,96898.84
2023-04-21T11:24:37.579Z,96897.78
2023-04-21T11:27:08.468Z,96882.97
2023-04-21T11:29:36.294Z,96896.06
2023-04-21T11:32:06.431Z,96889.50
2023-04-21T11:34:34.294Z,96883.31
2023-04-21T11:37:01.993Z,96886.28
2023-04-21T11:39:29.769Z,96880.75
2023-04-21T11:41:57.481Z,96879.75
2023-04-21T11:44:41.309Z,96874.97
2023-04-21T11:47:13.761Z,96868.34
2023-04-21T11:49:49.872Z,96872.34
2023-04-21T11:52:25.026Z,96882.41
2023-04-21T11:55:02.976Z,96893.19
2023-04-21T11:57:31.318Z,96913.88
2023-04-21T12:00:02.686Z,96920.81
2023-04-21T12:02:32.765Z,96926.88
2023-04-21T12:05:04.479Z,96951.66
2023-04-21T12:07:36.608Z,96958.03
2023-04-21T12:10:14.237Z,96953.06
2023-04-21T12:12:42.242Z,96958.66
2023-04-21T12:15:11.211Z,96974.50
2023-04-21T12:17:39.563Z,96969.44
2023-04-21T12:20:08.059Z,96964.22
2023-04-21T12:22:35.811Z,96961.59
2023-04-21T12:25:04.637Z,96964.22
2023-04-21T12:27:32.346Z,96967.28
2023-04-21T12:30:00.365Z,96965.63
2023-04-21T12:32:28.124Z,96963.56
2023-04-21T12:34:56.246Z,96958.94
2023-04-21T12:37:23.975Z,96959.22
2023-04-21T12:39:51.726Z,96942.81
2023-04-21T12:42:19.436Z,96948.53
2023-04-21T12:44:47.227Z,96949.03
2023-04-21T12:47:14.955Z,96949.56
2023-04-21T12:49:42.715Z,96947.44
2023-04-21T12:52:10.431Z,96949.44
2023-04-21T12:54:38.154Z,96958.28
2023-04-21T12:57:06.555Z,96946.88
2023-04-21T12:59:34.269Z,96937.00
2023-04-21T13:02:02.050Z,96941.22
2023-04-21T13:04:30.130Z,96942.31
2023-04-21T13:06:57.983Z,96943.81
2023-04-21T13:09:26.049Z,96942.81
2023-04-21T13:11:53.756Z,96939.19
2023-04-21T13:14:21.537Z,96928.25
2023-04-21T13:16:49.288Z,96923.81
2023-04-21T13:19:17.078Z,96925.59
2023-04-21T13:21:45.273Z,96936.59
2023-04-21T13:24:14.851Z,96935.75
2023-04-21T13:26:42.669Z,96933.22
2023-04-21T13:29:10.443Z,96923.00
2023-04-21T13:31:38.279Z,96917.88
2023-04-21T13:34:06.161Z,96916.53
2023-04-21T13:36:33.844Z,96911.59
2023-04-21T13:39:01.864Z,96914.22
2023-04-21T13:41:29.674Z,96911.91
2023-04-21T13:43:57.449Z,96910.19
2023-04-21T13:46:25.210Z,96905.84
2023-04-21T13:48:53.054Z,96895.69
2023-04-21T13:51:20.986Z,96897.03
2023-04-21T13:53:49.070Z,96900.41
2023-04-21T13:56:17.124Z,96904.56
2023-04-21T13:58:44.994Z,96901.97
2023-04-21T14:01:14.239Z,96898.00
2023-04-21T14:03:42.235Z,96893.38
2023-04-21T14:06:10.123Z,96898.09
2023-04-21T14:08:37.873Z,96894.44
2023-04-21T14:11:06.563Z,96888.19
2023-04-21T14:13:41.780Z,96889.53
2023-04-21T14:16:15.955Z,96890.44
2023-04-21T14:18:45.255Z,96890.97
2023-04-21T14:21:13.082Z,96885.94
2023-04-21T14:23:40.800Z,96885.19
2023-04-21T14:26:08.682Z,96884.63
2023-04-21T14:28:36.512Z,96885.53
2023-04-21T14:31:04.494Z,96877.09
2023-04-21T14:33:33.367Z,96876.31
2023-04-21T14:36:01.349Z,96870.66
2023-04-21T14:38:30.800Z,96868.66
2023-04-21T14:40:58.590Z,96868.94
2023-04-21T14:43:26.266Z,96857.91
2023-04-21T14:45:54.054Z,96865.13
2023-04-21T14:48:21.905Z,96865.31
2023-04-21T14:50:49.734Z,96864.72
2023-04-21T14:53:17.506Z,96861.28
2023-04-21T14:55:45.294Z,96865.63
2023-04-21T14:58:12.998Z,96868.91
2023-04-21T15:00:40.891Z,96864.63
2023-04-21T15:03:08.716Z,96868.31
2023-04-21T15:05:36.771Z,96874.75
2023-04-21T15:08:05.321Z,96874.81
2023-04-21T15:10:33.093Z,96875.34
2023-04-21T15:13:00.832Z,96890.53
2023-04-21T15:15:28.722Z,96886.38
2023-04-21T15:17:56.505Z,96877.22
2023-04-21T15:20:36.451Z,96874.22
2023-04-21T15:23:11.954Z,96871.72
2023-04-21T15:25:40.369Z,96873.06
2023-04-21T15:28:08.673Z,96868.69
2023-04-21T15:30:36.552Z,96873.00
2023-04-21T15:33:04.389Z,96872.13
2023-04-21T15:35:32.194Z,96875.50
2023-04-21T15:37:59.892Z,96868.53
2023-04-21T15:40:27.713Z,96867.53
2023-04-21T15:42:55.436Z,96871.16
2023-04-21T15:45:23.315Z,96872.09
2023-04-21T15:47:51.095Z,96874.88
2023-04-21T15:50:18.933Z,96865.06
2023-04-21T15:52:46.652Z,96880.31
2023-04-21T15:55:15.269Z,96872.03
2023-04-21T15:57:42.950Z,96879.88
2023-04-21T16:00:11.264Z,96874.66
2023-04-21T16:02:39.058Z,96869.91
2023-04-21T16:05:07.441Z,96877.75
2023-04-21T16:07:35.631Z,96886.09
2023-04-21T16:10:04.032Z,96893.41
2023-04-21T16:12:31.820Z,96910.03
2023-04-21T16:15:09.377Z,96919.41
2023-04-21T16:17:44.278Z,96914.72
2023-04-21T16:20:12.518Z,96918.88
2023-04-21T16:22:40.381Z,96928.19
2023-04-21T16:25:08.943Z,96930.81
2023-04-21T16:27:36.863Z,96953.16
2023-04-21T16:30:08.003Z,96961.47
2023-04-21T16:32:36.280Z,96967.63
2023-04-21T16:35:07.966Z,96974.38
2023-04-21T16:37:37.244Z,96975.16
2023-04-21T16:40:08.780Z,96979.25
2023-04-21T16:42:36.725Z,96981.72
2023-04-21T16:45:05.132Z,96982.03
2023-04-21T16:47:38.670Z,96976.22
2023-04-21T16:50:08.688Z,96981.69
2023-04-21T16:52:36.460Z,96981.41
2023-04-21T16:55:04.429Z,96995.75
2023-04-21T16:57:32.200Z,96993.63
2023-04-21T17:00:00.098Z,97005.78
2023-04-21T17:02:27.907Z,97021.81
2023-04-21T17:04:55.868Z,97028.41
2023-04-21T17:07:23.585Z,97029.88
2023-04-21T17:09:51.507Z,97049.09
2023-04-21T17:12:19.154Z,97049.69
2023-04-21T17:14:48.468Z,97054.34
2023-04-21T17:17:16.641Z,97061.66
2023-04-21T17:19:44.458Z,97048.44
2023-04-21T17:22:12.181Z,97033.88
2023-04-21T17:24:52.014Z,97032.84
2023-04-21T17:27:21.316Z,97027.84
2023-04-21T17:29:49.154Z,97030.41
2023-04-21T17:32:17.048Z,97022.38
2023-04-21T17:34:44.985Z,97023.63
2023-04-21T17:37:12.660Z,97029.00
2023-04-21T17:39:40.414Z,97021.50
2023-04-21T17:42:08.135Z,97039.53
2023-04-21T17:44:36.094Z,97050.03
2023-04-21T17:47:08.294Z,97062.16
2023-04-21T17:49:36.703Z,97070.72
2023-04-21T17:52:05.455Z,97078.66
2023-04-21T17:54:33.296Z,97078.59
2023-04-21T17:57:01.920Z,97087.88
2023-04-21T17:59:30.329Z,97085.22
2023-04-21T18:01:59.076Z,97096.47
2023-04-21T18:04:29.848Z,97080.69
2023-04-21T18:06:58.922Z,97071.63
2023-04-21T18:09:26.812Z,97062.28
2023-04-21T18:11:54.521Z,97057.91
2023-04-21T18:14:22.776Z,97050.47
2023-04-21T18:16:50.724Z,97043.91
2023-04-21T18:19:18.615Z,97050.88
2023-04-21T18:21:46.367Z,97042.00
2023-04-21T18:24:14.174Z,97031.59
2023-04-21T18:26:43.092Z,97031.13
2023-04-21T18:29:10.851Z,97033.69
2023-04-21T18:31:39.363Z,97042.22
2023-04-21T18:34:08.642Z,97037.84
2023-04-21T18:36:38.376Z,97060.16
2023-04-21T18:39:06.497Z,97070.94
2023-04-21T18:41:34.331Z,97080.59
2023-04-21T18:44:02.276Z,97055.81
2023-04-21T18:46:30.139Z,97033.84
2023-04-21T18:48:59.059Z,97004.91
2023-04-21T18:51:27.745Z,96996.28
2023-04-21T18:53:55.435Z,96982.06
2023-04-21T18:56:23.223Z,96986.38
2023-04-21T18:58:50.898Z,96998.59
2023-04-21T19:01:18.710Z,96998.97
2023-04-21T19:03:47.570Z,97010.56
2023-04-21T19:06:15.685Z,97008.03
2023-04-21T19:08:43.367Z,97016.31
2023-04-21T19:11:11.604Z,97011.28
2023-04-21T19:13:39.275Z,97010.38
2023-04-21T19:16:09.452Z,97011.63
2023-04-21T19:18:37.300Z,97015.34
2023-04-21T19:21:05.999Z,97016.09
2023-04-21T19:23:33.671Z,97018.00
2023-04-21T19:26:04.723Z,97017.56
2023-04-21T19:28:32.502Z,97034.63
2023-04-21T19:31:00.227Z,97024.44
2023-04-21T19:33:28.071Z,97028.41
2023-04-21T19:35:56.832Z,97021.91
2023-04-21T19:38:24.890Z,97028.78
2023-04-21T19:40:52.655Z,97021.50
2023-04-21T19:43:21.560Z,97033.63
2023-04-21T19:45:49.577Z,97035.34
2023-04-21T19:48:17.460Z,97025.88
2023-04-21T19:50:45.356Z,97038.94
2023-04-21T19:53:14.853Z,97038.00
2023-04-21T19:55:42.927Z,97040.91
2023-04-21T19:58:10.640Z,97044.94
2023-04-21T20:00:38.377Z,97046.19
2023-04-21T20:03:06.601Z,97057.91
2023-04-21T20:05:34.499Z,97062.09
2023-04-21T20:08:02.187Z,97061.63
2023-04-21T20:10:29.984Z,97070.69
2023-04-21T20:12:57.635Z,97079.06
2023-04-21T20:15:26.920Z,97080.31
2023-04-21T20:17:54.689Z,97080.72
2023-04-21T20:20:22.488Z,97082.34
2023-04-21T20:22:50.297Z,97084.59
2023-04-21T20:25:18.752Z,97094.75
2023-04-21T20:27:46.656Z,97094.19
2023-04-21T20:30:14.453Z,97085.75
2023-04-21T20:32:42.221Z,97098.97
2023-04-21T20:35:11.752Z,97103.41
2023-04-21T20:37:39.834Z,97095.56
2023-04-21T20:40:08.395Z,97101.47
2023-04-21T20:42:36.569Z,97107.28
2023-04-21T20:45:06.306Z,97108.34
2023-04-21T20:47:34.051Z,97100.69
2023-04-21T20:50:02.108Z,97110.16
2023-04-21T20:52:29.995Z,97108.47
2023-04-21T20:54:57.793Z,97110.56
2023-04-21T20:57:27.000Z,97114.91
2023-04-21T20:59:54.828Z,97115.81
2023-04-21T21:02:22.750Z,97104.78
2023-04-21T21:04:50.762Z,97100.50
2023-04-21T21:07:18.479Z,97111.38
2023-04-21T21:09:46.283Z,97120.75
2023-04-21T21:12:13.995Z,97141.72
2023-04-21T21:14:41.735Z,97149.84
2023-04-21T21:17:10.577Z,97159.19
2023-04-21T21:19:38.705Z,97143.28
2023-04-21T21:22:06.755Z,97151.91
2023-04-21T21:24:34.463Z,97159.06
2023-04-21T21:27:02.196Z,97163.22
2023-04-21T21:29:29.863Z,97167.56
2023-04-21T21:31:57.722Z,97172.09
2023-04-21T21:34:25.458Z,97175.47
2023-04-21T21:36:53.205Z,97163.06
2023-04-21T21:39:21.375Z,97161.56
2023-04-21T21:41:49.145Z,97175.88
2023-04-21T21:44:16.862Z,97167.44
2023-04-21T21:46:44.679Z,97166.06
2023-04-21T21:49:12.349Z,97163.69
2023-04-21T21:51:40.788Z,97164.94
2023-04-21T21:54:08.944Z,97171.25
2023-04-21T21:56:36.763Z,97174.41
2023-04-21T21:59:04.508Z,97171.25
2023-04-21T22:01:32.338Z,97164.69
2023-04-21T22:04:00.106Z,97164.84
2023-04-21T22:06:28.989Z,97160.38
2023-04-21T22:08:56.702Z,97155.97
2023-04-21T22:11:24.510Z,97157.41
2023-04-21T22:13:52.186Z,97156.28
2023-04-21T22:16:19.948Z,97162.53
2023-04-21T22:18:48.461Z,97150.09
2023-04-21T22:21:16.291Z,97154.41
2023-04-21T22:23:44.025Z,97139.88
2023-04-21T22:26:11.902Z,97143.31
2023-04-21T22:28:41.666Z,97139.25
2023-04-21T22:31:10.486Z,97138.78
2023-04-21T22:33:38.387Z,97144.75
2023-04-21T22:36:07.895Z,97139.56
2023-04-21T22:38:38.380Z,97144.78
2023-04-21T22:41:06.640Z,97144.22
2023-04-21T22:43:34.321Z,97154.53
2023-04-21T22:46:02.507Z,97154.09
2023-04-21T22:48:30.329Z,97147.00
2023-04-21T22:50:58.993Z,97141.25
2023-04-21T22:53:26.653Z,97133.88
2023-04-21T22:55:54.461Z,97127.19
2023-04-21T22:58:22.186Z,97128.34
2023-04-21T23:00:50.012Z,97130.63
2023-04-21T23:03:18.019Z,97121.78
2023-04-21T23:05:45.997Z,97116.09
2023-04-21T23:08:13.662Z,97110.03
2023-04-21T23:10:41.441Z,97106.81
2023-04-21T23:13:09.143Z,97099.28
2023-04-21T23:15:37.140Z,97103.34
2023-04-21T23:18:05.045Z,97099.44
2023-04-21T23:20:32.839Z,97102.03
2023-04-21T23:23:00.599Z,97097.78
2023-04-21T23:25:28.388Z,97097.72
2023-04-21T23:27:56.138Z,97091.66
2023-04-21T23:30:23.847Z,97089.19
2023-04-21T23:32:51.622Z,97088.72
2023-04-21T23:35:19.364Z,97075.09
2023-04-21T23:37:47.155Z,97074.38
2023-04-21T23:40:14.828Z,97088.47
2023-04-21T23:42:42.575Z,97089.22
2023-04-21T23:45:15.409Z,97083.88
2023-04-21T23:47:43.110Z,97086.97
2023-04-21T23:50:11.330Z,97077.22
2023-04-21T23:52:42.034Z,97082.38
2023-04-21T23:55:10.147Z,97083.97
2023-04-21T23:57:38.408Z,97084.81
